Aérodrome :
LOGIN :

S'inscrire | Disclaimer

   EN    FR    IT 

 










Légende :    VFR   VFR Marginal   IFR   IFR Intensif   IFR Très Intensif
Visi : 
Plafond : 
>= 8 km
>= 3000ft
5 à 8 km
1000 à 3000 ft
1500m à 5 km
500 à 1000 ft
800 à 1500m
200 à 500 ft
< 800m
< 200 ft
Symboles :   Orages  Brouillard  Fortes neiges  Fortes précipitations  Vent > 20 kt
SIGMETs :   Divers  Orages  Givrage  Turbulence  Onde Orograph.  Cendres Volcan.






- Altitude de l'aérodrome : 776 ft
- Code IATA : RMS


ETAR - Ramstein Air Base

DERNIER METAR :
  • 091757Z COR AUTO 00000KT 9999 OVC022 M01/M02 A2964 RMK AO2A OVC V BKN CIG 016 RWY08 SLP055 $ COR 1802

METARs EXPIRÉS :
  • 091740Z AUTO 00000KT 9999 BKN022 BKN046 M01/M02 A2963 RMK AO2 BKN022 V SCT SLP052 $
  • 091655Z 07003KT 9999 BKN045 M01/M02 A2962 RMK AO2A SLP049 T10061017 $
  • 091641Z COR AUTO 02004KT 9999 OVC045 M00/M02 A2962 RMK AO2A SLP047 $ COR 1650
  • 091639Z AUTO 02003KT 9999 -FZDZ OVC045 00/M02 A2962 RMK AO2 FZDZB39 SLP047 $
  • 091555Z AUTO 04003KT 9999 FEW019 BKN043 00/M01 A2962 RMK AO2 SLP047 T00041015 $

TAF TAF ETAR
Valide du 09 à 18h jusqu'au 11 à 00h UTC


091800Z 0918/1024 05009KT 9999 BKN020 620206 QNH2962INS
BECMG 0921/0922 VRB06KT 3200 BR BKN010 620156 QNH2965INS
TEMPO 1000/1004 8000 -SN BKN007
BECMG 1004/1005 VRB06KT 9999 NSW BKN020 620206 QNH2971INS
TEMPO 1009/1015 8000 -SN BKN010
BECMG 1014/1015 34006KT 9999 BKN015 620156 QNH2982INS
BECMG 1019/1020 27009KT 9999 SCT020 BKN030 620305 QNH2983INS TX02/1012Z TNM02/1006Z



MET'MAP, la Météo Aéronautique d'un coup d'oeil ! - Copyright ORBIFLY Décembre 2007 - Disclaimer

ORBIFLY MET'MAP TEAM :

Programmation & Développement : Alexandra Zaïnal
Sur une idée originale de : Baudouin d'Aumeries
Soutien technique & logistique : Manuel Goepfert
Assistance : Marc-Olivier Méhu




SOURCES & CREDITS :

   NOAA